Time;durP1;ratioP1;P1;durP2;ratioP2;P2;SDS_P1;SDS_P2;PMS_P1;PMS_P2;Temp;Humidity;BMP_temperature;BMP_pressure;BME280_temperature;BME280_humidity;BME280_pressure;Samples;Min_cycle;Max_cycle;Signal;HPM_P1;HPM_P2
2023/06/18 00:00:40;;;;;;;25.38;17.10;;;15.30;99.90;;;;;;5132325;28;20043;-79
2023/06/18 00:03:07;;;;;;;23.20;15.93;;;15.30;99.90;;;;;;5132407;28;20045;-79
2023/06/18 00:05:33;;;;;;;23.23;15.20;;;15.30;99.90;;;;;;5080876;28;20045;-79
2023/06/18 00:08:00;;;;;;;25.40;15.48;;;15.30;99.90;;;;;;5101916;28;20858;-79
2023/06/18 00:10:27;;;;;;;25.23;15.63;;;15.30;99.90;;;;;;5085611;28;20118;-80
2023/06/18 00:12:53;;;;;;;25.02;16.52;;;15.20;99.90;;;;;;5074963;28;20040;-79
2023/06/18 00:15:20;;;;;;;22.58;14.95;;;15.20;99.90;;;;;;5075307;28;20036;-79
2023/06/18 00:17:47;;;;;;;23.75;15.70;;;15.20;99.90;;;;;;5115034;28;20035;-79
2023/06/18 00:20:14;;;;;;;27.65;16.52;;;15.20;99.90;;;;;;5079177;28;20433;-79
2023/06/18 00:22:41;;;;;;;27.02;17.23;;;15.20;99.90;;;;;;5086830;28;20043;-78
2023/06/18 00:25:08;;;;;;;23.92;16.75;;;15.10;99.90;;;;;;5095632;28;20144;-79
2023/06/18 00:27:35;;;;;;;26.58;17.00;;;15.20;99.90;;;;;;5111681;28;20082;-79
2023/06/18 00:30:04;;;;;;;28.50;16.17;;;15.10;99.90;;;;;;5078602;28;20497;-79
2023/06/18 00:32:31;;;;;;;25.33;16.33;;;15.10;99.90;;;;;;5074815;28;20119;-79
2023/06/18 00:35:00;;;;;;;26.40;16.42;;;15.10;99.90;;;;;;5058391;28;20041;-79
2023/06/18 00:37:27;;;;;;;25.75;16.25;;;15.00;99.90;;;;;;5058862;28;20041;-79
2023/06/18 00:39:55;;;;;;;24.50;16.42;;;15.00;99.90;;;;;;5074980;28;20036;-79
2023/06/18 00:42:21;;;;;;;24.88;16.42;;;14.90;99.90;;;;;;5087534;28;20127;-79
2023/06/18 00:44:48;;;;;;;23.23;16.40;;;14.90;99.90;;;;;;5097921;28;20122;-79
2023/06/18 00:47:17;;;;;;;24.67;16.30;;;14.80;99.90;;;;;;5097835;28;20128;-79
2023/06/18 00:49:45;;;;;;;25.27;16.13;;;14.80;99.90;;;;;;5131083;28;20128;-79
2023/06/18 00:52:14;;;;;;;23.75;15.65;;;14.80;99.90;;;;;;5113200;28;20460;-79
2023/06/18 00:54:44;;;;;;;24.27;15.80;;;14.70;99.90;;;;;;5111676;28;20480;-79
2023/06/18 00:57:13;;;;;;;25.48;16.25;;;14.70;99.90;;;;;;5148646;28;20048;-79
2023/06/18 00:59:42;;;;;;;25.00;16.02;;;14.70;99.90;;;;;;5131288;28;20065;-79
2023/06/18 01:02:09;;;;;;;26.20;16.40;;;14.70;99.90;;;;;;5115259;28;20040;-79
2023/06/18 01:04:38;;;;;;;26.60;16.42;;;14.60;99.90;;;;;;5107936;28;20032;-79
2023/06/18 01:07:12;;;;;;;28.35;17.15;;;14.60;99.90;;;;;;5111347;28;20507;-79
2023/06/18 01:09:41;;;;;;;27.35;15.65;;;14.60;99.90;;;;;;5111842;28;20108;-79
2023/06/18 01:12:08;;;;;;;27.25;17.00;;;14.50;99.90;;;;;;5127772;28;20109;-79
2023/06/18 01:14:37;;;;;;;26.25;16.55;;;14.50;99.90;;;;;;5094242;28;20039;-79
2023/06/18 01:17:06;;;;;;;24.10;15.15;;;14.50;99.90;;;;;;5095403;28;20445;-79
2023/06/18 01:19:47;;;;;;;23.98;16.27;;;14.40;99.90;;;;;;5131002;28;20047;-79
2023/06/18 01:22:52;;;;;;;25.58;16.15;;;14.50;99.90;;;;;;5131256;28;20488;-79
2023/06/18 01:25:20;;;;;;;24.65;16.15;;;14.50;99.90;;;;;;5115199;28;20032;-79
2023/06/18 01:27:47;;;;;;;27.50;17.15;;;14.40;99.90;;;;;;5102043;28;20038;-79
2023/06/18 01:30:14;;;;;;;24.67;16.20;;;14.40;99.90;;;;;;5098420;28;20093;-79
2023/06/18 01:32:41;;;;;;;26.63;17.27;;;14.40;99.90;;;;;;5093724;28;20043;-79
2023/06/18 01:35:15;;;;;;;27.77;17.40;;;14.40;99.90;;;;;;5077189;28;20035;-79
2023/06/18 01:38:12;;;;;;;26.65;16.55;;;14.30;99.90;;;;;;5094335;28;20032;-79
2023/06/18 01:40:39;;;;;;;27.85;17.77;;;14.40;99.90;;;;;;5110092;28;20047;-79
2023/06/18 01:43:25;;;;;;;25.80;16.52;;;14.40;99.90;;;;;;5110576;28;20044;-79
2023/06/18 01:46:03;;;;;;;26.70;16.05;;;14.40;99.90;;;;;;5130374;28;20118;-79
2023/06/18 01:48:41;;;;;;;22.08;15.00;;;14.40;99.90;;;;;;5112147;28;20036;-79
2023/06/18 01:51:08;;;;;;;22.13;15.18;;;14.40;99.90;;;;;;5110336;28;20048;-80
2023/06/18 01:53:37;;;;;;;27.38;15.10;;;14.40;99.90;;;;;;5094050;28;20044;-79
2023/06/18 01:56:04;;;;;;;25.48;15.02;;;14.40;99.90;;;;;;5105308;28;20044;-79
2023/06/18 01:58:33;;;;;;;21.33;14.85;;;14.30;99.90;;;;;;5117282;28;20495;-79
2023/06/18 02:01:00;;;;;;;23.67;14.15;;;14.30;99.90;;;;;;5129154;28;20578;-79
2023/06/18 02:03:27;;;;;;;20.08;13.95;;;14.30;99.90;;;;;;5121719;28;20411;-79
2023/06/18 02:05:55;;;;;;;20.90;13.82;;;14.30;99.90;;;;;;5100234;28;20036;-79
2023/06/18 02:08:21;;;;;;;21.33;14.48;;;14.30;99.90;;;;;;5120264;28;20157;-79
2023/06/18 02:10:48;;;;;;;21.08;13.95;;;14.20;99.90;;;;;;5109391;28;20135;-79
2023/06/18 02:13:15;;;;;;;23.67;14.18;;;14.20;99.90;;;;;;5093590;28;20093;-80
2023/06/18 02:15:42;;;;;;;22.17;14.23;;;14.10;99.90;;;;;;5127503;28;20385;-79
2023/06/18 02:18:09;;;;;;;26.08;14.45;;;14.10;99.90;;;;;;5129612;28;20047;-79
2023/06/18 02:20:35;;;;;;;21.25;14.00;;;14.10;99.90;;;;;;5096656;28;20519;-79
2023/06/18 02:23:03;;;;;;;23.55;14.07;;;14.00;99.90;;;;;;5129682;28;20043;-79
2023/06/18 02:25:29;;;;;;;20.58;13.50;;;14.00;99.90;;;;;;5092911;28;20454;-79
2023/06/18 02:27:57;;;;;;;18.85;13.38;;;14.00;99.90;;;;;;5094794;28;20044;-79
2023/06/18 02:30:29;;;;;;;19.90;12.70;;;14.00;99.90;;;;;;5130028;28;20054;-79
2023/06/18 02:33:01;;;;;;;17.33;12.38;;;14.00;99.90;;;;;;5146529;28;20579;-79
2023/06/18 02:35:28;;;;;;;21.33;13.75;;;13.90;99.90;;;;;;5139321;28;20035;-79
2023/06/18 02:37:55;;;;;;;42.92;13.90;;;13.80;99.90;;;;;;5096229;28;20042;-79
2023/06/18 02:40:23;;;;;;;21.17;13.90;;;13.70;99.90;;;;;;5126567;28;20081;-79
2023/06/18 02:42:50;;;;;;;23.65;13.75;;;13.70;99.90;;;;;;5092682;28;20488;-80
2023/06/18 02:45:19;;;;;;;29.30;13.45;;;13.70;99.90;;;;;;5109815;28;20101;-79
2023/06/18 02:47:48;;;;;;;21.42;13.20;;;13.60;99.90;;;;;;5092744;28;20815;-80
2023/06/18 02:50:15;;;;;;;21.45;13.07;;;13.60;99.90;;;;;;5092723;28;20044;-79
2023/06/18 02:52:43;;;;;;;28.67;13.55;;;13.60;99.90;;;;;;5092620;28;20036;-80
2023/06/18 02:55:11;;;;;;;22.95;13.52;;;13.60;99.90;;;;;;5125837;28;20078;-80
2023/06/18 02:57:39;;;;;;;19.98;13.88;;;13.60;99.90;;;;;;5108726;28;20048;-80
2023/06/18 03:00:11;;;;;;;21.20;13.65;;;13.60;99.90;;;;;;5125659;28;20075;-79
2023/06/18 03:02:39;;;;;;;23.30;13.38;;;13.60;99.90;;;;;;5092886;28;20443;-79
2023/06/18 03:05:06;;;;;;;20.30;12.68;;;13.70;99.90;;;;;;5108257;28;20081;-80
2023/06/18 03:07:33;;;;;;;26.23;12.93;;;13.70;99.90;;;;;;5091934;28;20062;-80
2023/06/18 03:10:00;;;;;;;19.92;12.73;;;13.70;99.90;;;;;;5108731;28;20123;-80
2023/06/18 03:12:28;;;;;;;18.08;11.85;;;13.70;99.90;;;;;;5095749;28;20078;-80
2023/06/18 03:14:58;;;;;;;18.10;12.23;;;13.70;99.90;;;;;;5096836;28;20654;-79
2023/06/18 03:17:24;;;;;;;20.38;11.73;;;13.70;99.90;;;;;;5080548;28;20043;-80
2023/06/18 03:19:51;;;;;;;20.42;10.75;;;13.80;99.90;;;;;;5111096;28;20036;-79
2023/06/18 03:22:18;;;;;;;18.38;11.80;;;13.70;99.90;;;;;;5080140;28;20036;-79
2023/06/18 03:24:45;;;;;;;16.17;11.35;;;13.70;99.90;;;;;;5096346;28;20054;-80
2023/06/18 03:27:12;;;;;;;17.98;11.80;;;13.80;99.90;;;;;;5061299;28;20119;-79
2023/06/18 03:29:39;;;;;;;16.48;11.02;;;13.80;99.90;;;;;;5092431;28;20132;-80
2023/06/18 03:32:06;;;;;;;29.98;13.00;;;13.90;99.90;;;;;;5075610;28;20037;-80
2023/06/18 03:34:33;;;;;;;16.10;11.43;;;13.80;99.90;;;;;;5074123;28;20042;-80
2023/06/18 03:37:03;;;;;;;19.00;11.50;;;13.90;99.90;;;;;;5096448;28;20074;-80
2023/06/18 03:39:29;;;;;;;19.63;11.60;;;13.90;99.90;;;;;;5096802;28;20040;-79
2023/06/18 03:41:56;;;;;;;17.67;11.75;;;13.90;99.90;;;;;;5095621;28;20044;-80
2023/06/18 03:44:23;;;;;;;19.85;10.75;;;13.90;99.90;;;;;;5129378;28;20499;-80
2023/06/18 03:46:50;;;;;;;17.48;11.25;;;13.90;99.90;;;;;;5096611;28;20040;-80
2023/06/18 03:49:17;;;;;;;17.13;11.15;;;14.00;99.90;;;;;;5113081;28;20040;-80
2023/06/18 03:51:44;;;;;;;15.27;11.10;;;14.00;99.90;;;;;;5096022;28;20040;-80
2023/06/18 03:54:10;;;;;;;14.85;10.75;;;14.00;99.90;;;;;;5089739;28;20065;-79
2023/06/18 03:56:37;;;;;;;14.88;10.70;;;14.00;99.90;;;;;;5060538;28;20040;-80
2023/06/18 03:59:04;;;;;;;14.55;10.38;;;14.00;99.90;;;;;;5098941;28;20044;-79
2023/06/18 04:01:31;;;;;;;17.10;10.15;;;14.10;99.90;;;;;;5133059;28;20487;-80
2023/06/18 04:04:01;;;;;;;16.67;9.55;;;14.10;99.90;;;;;;5098384;28;20082;-80
2023/06/18 04:06:27;;;;;;;14.90;10.18;;;14.10;99.90;;;;;;5083434;28;20054;-79
2023/06/18 04:08:54;;;;;;;13.52;10.00;;;14.10;99.90;;;;;;5115646;28;20039;-80
2023/06/18 04:11:21;;;;;;;13.30;9.80;;;14.20;99.90;;;;;;5098852;28;20035;-79
2023/06/18 04:13:48;;;;;;;13.35;10.05;;;14.20;99.90;;;;;;5099207;28;20043;-80
2023/06/18 04:16:14;;;;;;;15.05;9.30;;;14.20;99.90;;;;;;5107425;27;20384;-79
2023/06/18 04:18:41;;;;;;;13.27;9.73;;;14.20;99.90;;;;;;5119423;27;20062;-79
2023/06/18 04:21:08;;;;;;;14.18;9.93;;;14.20;99.90;;;;;;5102581;27;20069;-80
2023/06/18 04:23:34;;;;;;;14.18;10.00;;;14.30;99.90;;;;;;5101857;27;20035;-79
2023/06/18 04:26:01;;;;;;;14.70;10.27;;;14.30;99.90;;;;;;5119049;27;20043;-80
2023/06/18 04:28:28;;;;;;;14.38;10.27;;;14.40;99.90;;;;;;5101467;27;20066;-80
2023/06/18 04:30:54;;;;;;;15.05;10.80;;;14.40;99.90;;;;;;5118767;27;20491;-80
2023/06/18 04:33:21;;;;;;;14.63;10.48;;;14.40;99.90;;;;;;5118385;27;20463;-79
2023/06/18 04:35:48;;;;;;;14.80;10.52;;;14.50;99.90;;;;;;5102211;27;20483;-80
2023/06/18 04:38:14;;;;;;;14.93;10.52;;;14.60;99.90;;;;;;5135234;27;20403;-80
2023/06/18 04:40:41;;;;;;;14.30;10.45;;;14.60;99.90;;;;;;5118338;27;20035;-80
2023/06/18 04:43:08;;;;;;;15.57;10.40;;;14.70;99.90;;;;;;5135390;27;20039;-80
2023/06/18 04:45:34;;;;;;;18.50;10.98;;;14.70;99.90;;;;;;5135569;27;20043;-79
2023/06/18 04:48:05;;;;;;;15.80;11.15;;;14.80;99.90;;;;;;5118240;27;20130;-81
2023/06/18 04:50:31;;;;;;;15.82;11.20;;;14.70;99.90;;;;;;5108336;28;20039;-80
2023/06/18 04:52:58;;;;;;;16.42;10.27;;;14.80;99.90;;;;;;5114819;28;20510;-80
2023/06/18 04:55:24;;;;;;;17.23;11.50;;;14.80;99.90;;;;;;5097819;28;20036;-80
2023/06/18 04:57:51;;;;;;;18.33;11.20;;;14.90;99.90;;;;;;5098435;28;20040;-80
2023/06/18 05:00:20;;;;;;;18.00;11.25;;;15.00;99.90;;;;;;5114296;28;20043;-80
2023/06/18 05:02:46;;;;;;;16.15;11.70;;;15.00;99.90;;;;;;5098584;28;20051;-80
2023/06/18 05:05:13;;;;;;;18.02;11.55;;;15.00;99.90;;;;;;5097442;28;20514;-80
2023/06/18 05:07:40;;;;;;;17.77;11.85;;;15.00;99.90;;;;;;5114669;28;20039;-80
2023/06/18 05:10:07;;;;;;;19.92;12.10;;;15.10;99.90;;;;;;5097515;28;20480;-80
2023/06/18 05:12:34;;;;;;;16.85;11.45;;;15.20;99.90;;;;;;5134445;27;20096;-80
2023/06/18 05:15:01;;;;;;;18.08;11.38;;;15.20;99.90;;;;;;5118152;27;20035;-80
2023/06/18 05:17:27;;;;;;;15.80;11.13;;;15.30;99.90;;;;;;5117705;27;20099;-80
2023/06/18 05:19:54;;;;;;;17.42;11.63;;;15.30;99.90;;;;;;5101199;27;20035;-80
2023/06/18 05:22:21;;;;;;;18.40;12.32;;;15.40;99.90;;;;;;5116551;27;20047;-80
2023/06/18 05:24:47;;;;;;;16.45;11.32;;;15.40;99.90;;;;;;5113913;28;20092;-80
2023/06/18 05:27:14;;;;;;;17.98;11.60;;;15.40;99.90;;;;;;5097351;28;20511;-80
2023/06/18 05:29:41;;;;;;;19.25;12.40;;;15.50;99.90;;;;;;5114069;28;20036;-80
2023/06/18 05:32:09;;;;;;;17.17;12.30;;;15.50;99.90;;;;;;5097047;28;20044;-82
2023/06/18 05:34:36;;;;;;;16.83;11.70;;;15.50;99.90;;;;;;5097368;28;20072;-80
2023/06/18 05:37:02;;;;;;;17.67;12.10;;;15.60;99.90;;;;;;5097247;28;20035;-80
2023/06/18 05:39:29;;;;;;;18.00;11.85;;;15.60;99.90;;;;;;5130815;28;20498;-80
2023/06/18 05:41:56;;;;;;;18.08;12.30;;;15.70;99.90;;;;;;5114098;28;20042;-80
2023/06/18 05:44:22;;;;;;;19.95;12.48;;;15.80;99.90;;;;;;5096813;28;20082;-80
2023/06/18 05:46:49;;;;;;;21.75;12.80;;;15.80;99.90;;;;;;5097545;28;20048;-80
2023/06/18 05:49:16;;;;;;;19.73;12.32;;;15.80;99.90;;;;;;5097030;28;20058;-80
2023/06/18 05:51:45;;;;;;;18.58;12.18;;;15.80;99.90;;;;;;5096932;28;20070;-80
2023/06/18 05:54:11;;;;;;;17.40;12.43;;;15.80;99.90;;;;;;5097136;28;20027;-80
2023/06/18 05:56:38;;;;;;;19.77;12.77;;;15.90;99.90;;;;;;5096956;28;20108;-80
2023/06/18 05:59:05;;;;;;;18.17;12.57;;;16.00;99.90;;;;;;5113382;28;20126;-80
2023/06/18 06:01:33;;;;;;;20.80;13.50;;;16.00;99.90;;;;;;5097017;28;20492;-80
2023/06/18 06:04:01;;;;;;;22.08;13.60;;;16.10;99.90;;;;;;5115857;27;20047;-80
2023/06/18 06:06:28;;;;;;;21.02;14.32;;;16.20;99.90;;;;;;5150826;27;20078;-80
2023/06/18 06:08:55;;;;;;;21.05;13.40;;;16.20;99.90;;;;;;5100448;27;20105;-80
2023/06/18 06:11:22;;;;;;;22.02;13.05;;;16.30;99.90;;;;;;5116769;27;20035;-80
2023/06/18 06:13:49;;;;;;;19.73;13.75;;;16.40;99.90;;;;;;5117152;27;20457;-80
2023/06/18 06:16:16;;;;;;;21.50;13.27;;;16.50;99.90;;;;;;5117168;27;20039;-80
2023/06/18 06:18:42;;;;;;;19.50;13.13;;;16.50;99.90;;;;;;5112372;27;20039;-80
2023/06/18 06:21:09;;;;;;;18.35;13.15;;;16.60;99.90;;;;;;5100237;27;20039;-80
2023/06/18 06:23:36;;;;;;;20.73;13.70;;;16.80;99.90;;;;;;5116633;27;20081;-80
2023/06/18 06:26:03;;;;;;;18.77;12.98;;;16.70;99.90;;;;;;5100105;27;20035;-80
2023/06/18 06:28:30;;;;;;;18.77;13.52;;;16.70;99.90;;;;;;5083747;27;20039;-80
2023/06/18 06:30:57;;;;;;;19.80;13.18;;;16.90;99.90;;;;;;5117057;27;20050;-80
2023/06/18 06:33:24;;;;;;;19.67;13.35;;;16.90;99.90;;;;;;5108330;27;20428;-80
2023/06/18 06:35:51;;;;;;;19.75;12.85;;;17.00;99.90;;;;;;5090307;28;20054;-80
2023/06/18 06:38:18;;;;;;;17.95;12.82;;;17.00;99.90;;;;;;5096445;28;20046;-81
2023/06/18 06:40:45;;;;;;;19.17;13.13;;;17.10;99.90;;;;;;5104433;27;20637;-80
2023/06/18 06:43:11;;;;;;;19.75;13.40;;;17.20;99.90;;;;;;5083523;28;20035;-80
2023/06/18 06:45:38;;;;;;;20.02;13.07;;;17.30;99.90;;;;;;5108130;28;20130;-80
2023/06/18 06:48:04;;;;;;;20.88;14.02;;;17.40;99.90;;;;;;5086887;28;20035;-80
2023/06/18 06:50:31;;;;;;;20.23;13.50;;;17.50;99.90;;;;;;5084249;28;20039;-80
2023/06/18 06:52:58;;;;;;;22.17;14.10;;;17.60;99.90;;;;;;5079624;28;20047;-80
2023/06/18 06:55:24;;;;;;;20.48;14.18;;;17.60;99.90;;;;;;5104446;28;20616;-80
2023/06/18 06:57:51;;;;;;;20.05;13.80;;;17.70;99.90;;;;;;5125362;28;20563;-80
2023/06/18 07:00:18;;;;;;;23.10;15.38;;;17.70;99.90;;;;;;5103145;28;20487;-80
2023/06/18 07:02:45;;;;;;;22.55;14.95;;;17.80;99.90;;;;;;5116623;28;20043;-80
2023/06/18 07:05:11;;;;;;;21.92;14.95;;;17.90;99.90;;;;;;5116185;28;20043;-80
2023/06/18 07:07:39;;;;;;;23.23;14.98;;;18.00;99.90;;;;;;5116232;28;20080;-80
2023/06/18 07:10:06;;;;;;;24.85;14.68;;;18.00;99.90;;;;;;5100492;28;20042;-80
2023/06/18 07:12:33;;;;;;;23.48;14.70;;;18.20;99.90;;;;;;5116518;28;20042;-80
2023/06/18 07:15:00;;;;;;;23.27;14.63;;;18.30;99.90;;;;;;5116317;28;20043;-80
2023/06/18 07:17:26;;;;;;;21.80;14.65;;;18.40;99.90;;;;;;5099240;28;20072;-81
2023/06/18 07:19:54;;;;;;;20.52;13.98;;;18.50;99.90;;;;;;5085780;28;20040;-80
2023/06/18 07:22:21;;;;;;;20.15;13.00;;;18.50;99.90;;;;;;5129758;28;20487;-80
2023/06/18 07:24:48;;;;;;;21.08;13.90;;;18.70;99.90;;;;;;5079433;28;20034;-80
2023/06/18 07:27:15;;;;;;;20.10;13.60;;;18.80;99.90;;;;;;5079546;28;20092;-80
2023/06/18 07:29:41;;;;;;;18.90;12.93;;;18.90;99.90;;;;;;5139094;28;20377;-80
2023/06/18 07:32:08;;;;;;;16.67;12.40;;;19.00;99.90;;;;;;5116213;28;20075;-80
2023/06/18 07:34:35;;;;;;;18.85;12.55;;;19.10;99.90;;;;;;5149702;28;20081;-81
2023/06/18 07:37:01;;;;;;;19.35;12.57;;;19.30;99.90;;;;;;5116648;28;20122;-81
2023/06/18 07:39:28;;;;;;;15.73;10.73;;;19.40;99.90;;;;;;5149724;28;20035;-81
2023/06/18 07:41:55;;;;;;;16.45;11.48;;;19.60;99.90;;;;;;5114049;28;20034;-82
2023/06/18 07:44:21;;;;;;;16.27;11.48;;;19.80;99.90;;;;;;5111381;28;20043;-81
2023/06/18 07:46:48;;;;;;;18.02;10.88;;;19.90;99.90;;;;;;5094813;28;20043;-82
2023/06/18 07:49:16;;;;;;;16.55;11.65;;;20.10;99.90;;;;;;5095016;28;20488;-82
2023/06/18 07:51:43;;;;;;;16.50;11.48;;;20.20;99.90;;;;;;5105980;28;20040;-81
2023/06/18 07:54:10;;;;;;;16.25;11.10;;;20.20;99.90;;;;;;5147422;28;20127;-81
2023/06/18 07:56:37;;;;;;;14.23;10.02;;;20.40;99.90;;;;;;5110920;28;20473;-82
2023/06/18 07:59:03;;;;;;;14.75;10.93;;;20.50;99.90;;;;;;5098448;28;20054;-82
2023/06/18 08:01:30;;;;;;;15.18;10.32;;;20.70;99.90;;;;;;5115319;28;20038;-82
2023/06/18 08:03:57;;;;;;;16.08;11.25;;;20.80;99.90;;;;;;5099417;28;20050;-81
2023/06/18 08:06:24;;;;;;;14.40;10.30;;;21.00;99.90;;;;;;5102987;27;20519;-82
2023/06/18 08:08:51;;;;;;;15.05;10.07;;;21.10;99.90;;;;;;5136047;27;20042;-82
2023/06/18 08:11:17;;;;;;;17.00;10.48;;;21.30;99.90;;;;;;5117658;27;20038;-82
2023/06/18 08:13:44;;;;;;;14.15;10.75;;;21.40;99.90;;;;;;5129456;27;20039;-82
2023/06/18 08:16:11;;;;;;;16.75;10.63;;;21.50;99.90;;;;;;5116099;27;20087;-82
2023/06/18 08:18:38;;;;;;;14.35;10.38;;;21.60;99.90;;;;;;5115760;28;20062;-82
2023/06/18 08:21:05;;;;;;;18.20;9.90;;;21.70;99.90;;;;;;5098980;28;20043;-82
2023/06/18 08:23:31;;;;;;;14.18;9.50;;;21.90;99.90;;;;;;5081329;28;20047;-82
2023/06/18 08:25:58;;;;;;;15.90;9.95;;;22.00;99.90;;;;;;5114985;28;20074;-81
2023/06/18 08:28:25;;;;;;;12.80;9.13;;;22.20;99.90;;;;;;5081852;28;20047;-81
2023/06/18 08:30:51;;;;;;;13.27;9.93;;;22.40;99.90;;;;;;5081179;28;20036;-81
2023/06/18 08:33:18;;;;;;;13.57;9.95;;;22.50;99.90;;;;;;5114978;28;20093;-81
2023/06/18 08:35:45;;;;;;;15.73;9.38;;;22.70;99.90;;;;;;5102299;27;20046;-81
2023/06/18 08:38:11;;;;;;;15.88;10.07;;;22.80;99.90;;;;;;5097815;28;20092;-81
2023/06/18 08:40:54;;;;;;;15.88;9.95;;;23.00;99.90;;;;;;5098430;28;20046;-81
2023/06/18 08:43:26;;;;;;;16.42;10.35;;;23.10;99.90;;;;;;5115532;28;20118;-81
2023/06/18 08:45:53;;;;;;;16.33;11.00;;;23.20;99.90;;;;;;5098767;28;20040;-81
2023/06/18 08:48:26;;;;;;;13.07;9.52;;;23.30;99.90;;;;;;5151773;27;20114;-82
2023/06/18 08:51:01;;;;;;;12.65;9.52;;;23.40;99.90;;;;;;5134947;27;20036;-81
2023/06/18 08:53:53;;;;;;;15.38;9.63;;;23.50;99.90;;;;;;5134670;27;20518;-82
2023/06/18 08:56:22;;;;;;;14.38;9.90;;;23.70;99.90;;;;;;5135333;27;20092;-81
2023/06/18 08:58:50;;;;;;;13.73;9.55;;;23.80;99.90;;;;;;5117677;27;20047;-81
2023/06/18 09:01:18;;;;;;;14.50;9.43;;;23.90;99.90;;;;;;5115153;27;20118;-82
2023/06/18 09:03:46;;;;;;;14.52;10.52;;;24.00;99.90;;;;;;5117888;27;20050;-81
2023/06/18 09:06:13;;;;;;;14.15;10.05;;;24.10;99.90;;;;;;5135278;27;20071;-81
2023/06/18 09:08:40;;;;;;;16.75;10.43;;;24.20;99.90;;;;;;5150542;27;20050;-81
2023/06/18 09:11:07;;;;;;;13.50;9.63;;;24.20;99.90;;;;;;5117600;27;20043;-81
2023/06/18 09:13:39;;;;;;;12.40;9.43;;;24.30;99.90;;;;;;5134613;27;20040;-82
2023/06/18 09:16:06;;;;;;;13.23;9.40;;;24.40;99.90;;;;;;5151542;27;20035;-81
2023/06/18 09:18:33;;;;;;;14.10;9.65;;;24.50;99.90;;;;;;5133883;27;20035;-81
2023/06/18 09:21:00;;;;;;;13.73;9.23;;;24.70;99.90;;;;;;5117485;27;20491;-81
2023/06/18 09:23:27;;;;;;;12.82;9.68;;;24.70;99.90;;;;;;5117594;27;20054;-82
2023/06/18 09:25:55;;;;;;;12.75;9.07;;;24.80;99.90;;;;;;5134562;27;20055;-83
2023/06/18 09:28:23;;;;;;;12.48;8.27;;;25.00;99.90;;;;;;5117423;27;20418;-83
2023/06/18 09:30:58;;;;;;;15.23;10.02;;;25.10;99.90;;;;;;5150796;27;20039;-82
2023/06/18 09:33:35;;;;;;;15.03;9.07;;;25.20;99.90;;;;;;5151594;27;20479;-83
2023/06/18 09:36:07;;;;;;;12.13;8.20;;;25.30;99.90;;;;;;5100949;27;20312;-82
2023/06/18 09:38:35;;;;;;;12.60;8.38;;;25.40;99.90;;;;;;5133809;27;20065;-83
2023/06/18 09:41:03;;;;;;;10.50;7.93;;;25.60;99.90;;;;;;5134219;27;20031;-82
2023/06/18 09:43:41;;;;;;;10.73;7.85;;;25.70;99.90;;;;;;5134224;27;20043;-82
2023/06/18 09:46:08;;;;;;;10.07;7.80;;;25.80;99.90;;;;;;5134087;27;20139;-82
2023/06/18 09:48:37;;;;;;;14.15;8.18;;;25.90;99.90;;;;;;5134097;27;20430;-82
2023/06/18 09:51:07;;;;;;;10.73;7.40;;;26.00;99.90;;;;;;5118448;27;20050;-84
2023/06/18 09:53:34;;;;;;;11.63;7.88;;;26.10;99.90;;;;;;5111879;27;20066;-83
2023/06/18 09:56:12;;;;;;;10.05;6.95;;;26.20;99.90;;;;;;5133414;27;20453;-83
2023/06/18 09:58:44;;;;;;;10.52;7.18;;;26.30;99.90;;;;;;5116390;27;20047;-84
2023/06/18 10:01:11;;;;;;;12.13;7.82;;;26.40;99.90;;;;;;5133412;27;20080;-84
2023/06/18 10:03:38;;;;;;;10.88;7.20;;;26.50;99.90;;;;;;5096066;28;20503;-84
2023/06/18 10:06:11;;;;;;;11.15;7.03;;;26.50;99.90;;;;;;5112882;28;20856;-83
2023/06/18 10:08:41;;;;;;;10.95;7.07;;;26.60;99.90;;;;;;5113252;28;20043;-84
2023/06/18 10:11:09;;;;;;;11.70;7.30;;;26.70;99.90;;;;;;5128772;27;20061;-84
2023/06/18 10:14:13;;;;;;;9.30;6.53;;;26.70;99.90;;;;;;5115644;27;20035;-83
2023/06/18 10:16:50;;;;;;;10.02;7.05;;;27.00;99.90;;;;;;5072863;28;20134;-83
2023/06/18 10:19:30;;;;;;;9.90;7.07;;;27.10;99.90;;;;;;5129908;28;20475;-80
2023/06/18 10:22:00;;;;;;;11.77;7.15;;;27.10;99.90;;;;;;5148536;27;20551;-80
2023/06/18 10:24:42;;;;;;;8.50;6.22;;;27.20;99.90;;;;;;5150399;28;20162;-78
2023/06/18 10:27:09;;;;;;;9.27;6.18;;;27.30;99.90;;;;;;5133740;27;20050;-80
2023/06/18 10:29:36;;;;;;;9.40;6.90;;;27.40;99.90;;;;;;5116566;27;20118;-80
2023/06/18 10:32:04;;;;;;;9.57;6.57;;;27.50;99.90;;;;;;5150288;27;20065;-80
2023/06/18 10:34:34;;;;;;;10.60;7.07;;;27.60;99.90;;;;;;5116630;27;20035;-80
2023/06/18 10:37:02;;;;;;;11.32;6.75;;;27.60;99.90;;;;;;5099481;27;20564;-80
2023/06/18 10:39:29;;;;;;;8.75;6.28;;;27.60;99.90;;;;;;5116779;27;20045;-79
2023/06/18 10:42:14;;;;;;;10.15;6.25;;;27.50;99.90;;;;;;5116619;27;20125;-79
2023/06/18 10:45:11;;;;;;;10.00;6.13;;;27.70;99.90;;;;;;5132711;27;20053;-81
2023/06/18 10:47:39;;;;;;;8.98;6.25;;;27.80;98.00;;;;;;5133053;27;20039;-81
2023/06/18 10:50:06;;;;;;;8.68;5.97;;;27.90;99.70;;;;;;5132525;27;20445;-82
2023/06/18 10:52:40;;;;;;;8.90;5.95;;;28.00;99.50;;;;;;5132688;28;20043;-80
2023/06/18 10:55:28;;;;;;;6.97;5.63;;;28.10;99.00;;;;;;5133235;27;20058;-80
2023/06/18 10:58:05;;;;;;;8.05;5.88;;;28.20;98.80;;;;;;5113670;28;20544;-80
2023/06/18 11:00:41;;;;;;;10.75;6.35;;;28.20;96.30;;;;;;5127921;28;20040;-80
2023/06/18 11:03:11;;;;;;;8.60;5.70;;;28.20;97.90;;;;;;5129558;28;20499;-80
2023/06/18 11:05:40;;;;;;;8.75;5.45;;;28.30;97.40;;;;;;5129503;28;20044;-81
2023/06/18 11:08:09;;;;;;;8.15;5.10;;;28.30;97.10;;;;;;5121465;28;20499;-80
2023/06/18 11:10:40;;;;;;;8.38;5.72;;;28.30;97.20;;;;;;5076320;28;20035;-81
2023/06/18 11:13:09;;;;;;;8.18;5.68;;;28.40;97.10;;;;;;5108363;28;20040;-81
2023/06/18 11:15:52;;;;;;;7.80;5.60;;;28.50;97.30;;;;;;5125943;28;20039;-80
2023/06/18 11:18:21;;;;;;;8.30;5.70;;;28.60;97.20;;;;;;5115470;28;20035;-80
2023/06/18 11:20:48;;;;;;;7.78;5.82;;;28.50;96.60;;;;;;5129282;28;20057;-81
2023/06/18 11:23:15;;;;;;;10.90;5.68;;;28.50;97.00;;;;;;5105776;28;20036;-81
2023/06/18 11:25:42;;;;;;;7.60;5.90;;;28.50;97.00;;;;;;5109076;28;20044;-81
2023/06/18 11:28:10;;;;;;;7.40;5.20;;;28.40;96.90;;;;;;5108606;28;20126;-81
2023/06/18 11:30:37;;;;;;;7.28;5.35;;;28.50;96.70;;;;;;5092196;28;20047;-80
2023/06/18 11:33:04;;;;;;;7.75;5.57;;;28.50;96.40;;;;;;5096983;28;20666;-81
2023/06/18 11:35:31;;;;;;;7.25;5.38;;;28.60;96.30;;;;;;5100327;28;20091;-81
2023/06/18 11:37:58;;;;;;;7.88;5.35;;;28.70;96.10;;;;;;5116499;28;20130;-81
2023/06/18 11:40:24;;;;;;;8.77;5.57;;;28.70;95.60;;;;;;5133166;28;20141;-81
2023/06/18 11:42:53;;;;;;;8.00;5.25;;;28.70;95.40;;;;;;5124355;28;20039;-81
2023/06/18 11:45:20;;;;;;;6.32;5.10;;;28.70;94.60;;;;;;5144802;28;20096;-81
2023/06/18 11:47:51;;;;;;;8.50;5.18;;;28.70;94.70;;;;;;5096655;28;20403;-81
2023/06/18 11:50:21;;;;;;;7.28;5.15;;;28.80;94.20;;;;;;5118695;28;20051;-81
2023/06/18 11:52:48;;;;;;;8.68;5.18;;;28.90;94.30;;;;;;5137047;28;20043;-81
2023/06/18 11:55:15;;;;;;;8.18;5.13;;;28.90;94.30;;;;;;5088995;28;20032;-80
2023/06/18 11:57:43;;;;;;;7.28;5.30;;;29.00;94.50;;;;;;5084219;28;20044;-80
2023/06/18 12:00:12;;;;;;;9.40;6.38;;;28.90;93.50;;;;;;5099600;28;20079;-81
2023/06/18 12:02:40;;;;;;;8.25;5.70;;;29.00;93.90;;;;;;5105541;28;20038;-80
2023/06/18 12:05:08;;;;;;;8.68;5.70;;;28.90;94.00;;;;;;5121806;28;20040;-80
2023/06/18 12:07:39;;;;;;;9.48;5.72;;;28.90;94.30;;;;;;5095301;28;20033;-80
2023/06/18 12:10:09;;;;;;;6.50;4.90;;;28.90;93.10;;;;;;5109309;28;20090;-81
2023/06/18 12:12:56;;;;;;;8.75;5.95;;;28.80;94.10;;;;;;5105198;28;20037;-81
2023/06/18 12:15:23;;;;;;;7.65;5.35;;;28.80;94.20;;;;;;5080057;28;20515;-80
2023/06/18 12:18:12;;;;;;;6.63;5.20;;;28.70;94.20;;;;;;5108317;28;20082;-81
2023/06/18 12:20:39;;;;;;;6.93;5.32;;;28.70;92.10;;;;;;5110506;28;20571;-80
2023/06/18 12:23:06;;;;;;;10.70;5.40;;;28.70;93.50;;;;;;5128609;28;20046;-81
2023/06/18 12:25:34;;;;;;;8.98;5.57;;;28.60;93.50;;;;;;5110632;28;20036;-79
2023/06/18 12:28:03;;;;;;;6.72;5.00;;;28.60;93.90;;;;;;5106732;28;20469;-79
2023/06/18 12:30:37;;;;;;;10.05;5.57;;;28.60;93.90;;;;;;5128533;28;20096;-79
2023/06/18 12:33:06;;;;;;;7.15;5.47;;;28.70;93.80;;;;;;5109078;28;20043;-79
2023/06/18 12:35:34;;;;;;;6.47;5.30;;;28.70;93.30;;;;;;5126129;28;20035;-80
2023/06/18 12:38:08;;;;;;;8.85;5.05;;;28.70;93.30;;;;;;5104346;28;20459;-80